Time;durP1;ratioP1;P1;durP2;ratioP2;P2;SDS_P1;SDS_P2;PMS_P1;PMS_P2;Temp;Humidity;BMP_temperature;BMP_pressure;BME280_temperature;BME280_humidity;BME280_pressure;Samples;Min_cycle;Max_cycle;Signal;HPM_P1;HPM_P2
2022/11/01 00:00:34;;;;;;;19.50;12.60;;;;;;;13.90;88.24;99935.56;5087994;28;20467;-65
2022/11/01 00:03:01;;;;;;;16.40;13.23;;;;;;;13.86;88.82;99938.78;5089441;28;20532;-65
2022/11/01 00:05:27;;;;;;;17.80;11.97;;;;;;;13.81;88.73;99938.47;5099539;28;20483;-71
2022/11/01 00:07:54;;;;;;;20.70;13.27;;;;;;;13.84;88.90;99935.44;5102467;28;20459;-72
2022/11/01 00:10:22;;;;;;;14.30;10.87;;;;;;;13.81;88.95;99930.41;5094695;28;20483;-70
2022/11/01 00:12:48;;;;;;;17.93;11.93;;;;;;;13.84;88.76;99933.59;5084530;28;20487;-72
2022/11/01 00:15:15;;;;;;;22.90;13.77;;;;;;;13.87;88.53;99930.56;5098421;28;20475;-71
2022/11/01 00:17:42;;;;;;;22.10;11.93;;;;;;;13.98;88.07;99932.06;5101954;28;20479;-71
2022/11/01 00:20:10;;;;;;;18.13;11.40;;;;;;;13.95;87.98;99929.69;5099136;28;20464;-72
2022/11/01 00:22:36;;;;;;;16.37;12.63;;;;;;;14.01;88.02;99928.16;5084379;28;20472;-71
2022/11/01 00:25:03;;;;;;;18.27;11.37;;;;;;;13.95;88.01;99929.69;5093914;28;20941;-72
2022/11/01 00:27:31;;;;;;;13.53;11.27;;;;;;;13.93;88.14;99927.19;5091038;28;20515;-71
2022/11/01 00:29:58;;;;;;;17.83;12.43;;;;;;;13.93;88.32;99929.88;5089999;28;20480;-72
2022/11/01 00:32:24;;;;;;;17.63;12.50;;;;;;;13.98;87.84;99915.94;5098893;28;21007;-72
2022/11/01 00:34:51;;;;;;;17.10;12.33;;;;;;;13.88;88.60;99916.09;5104516;28;20456;-70
2022/11/01 00:37:18;;;;;;;16.17;12.83;;;;;;;13.87;88.27;99897.47;5102968;28;20511;-71
2022/11/01 00:39:44;;;;;;;16.13;12.63;;;;;;;13.87;88.40;99910.91;5103363;28;20566;-72
2022/11/01 00:42:11;;;;;;;21.97;11.93;;;;;;;13.90;88.20;99900.63;5103013;28;21034;-71
2022/11/01 00:44:39;;;;;;;18.73;13.03;;;;;;;13.82;88.42;99906.06;5086859;28;20559;-72
2022/11/01 00:47:05;;;;;;;16.30;11.33;;;;;;;13.84;88.46;99905.88;5082658;28;20939;-73
2022/11/01 00:49:32;;;;;;;17.53;12.60;;;;;;;13.80;88.57;99901.84;5095157;28;20459;-72
2022/11/01 00:51:59;;;;;;;17.33;12.77;;;;;;;13.73;88.57;99896.31;5102815;28;20515;-71
2022/11/01 00:54:25;;;;;;;18.13;12.40;;;;;;;13.71;88.85;99883.06;5103167;28;20476;-72
2022/11/01 00:56:52;;;;;;;21.50;11.97;;;;;;;13.70;88.69;99896.66;5102881;28;20490;-73
2022/11/01 00:59:19;;;;;;;17.10;12.40;;;;;;;13.68;89.15;99890.59;5098697;28;20532;-72
2022/11/01 01:01:47;;;;;;;19.13;11.93;;;;;;;13.73;88.61;99890.94;5082141;28;20947;-71
2022/11/01 01:04:13;;;;;;;15.13;11.10;;;;;;;13.74;88.41;99887.25;5083448;28;20519;-71
2022/11/01 01:06:40;;;;;;;19.70;11.80;;;;;;;13.70;88.52;99886.75;5094938;28;20530;-72
2022/11/01 01:09:07;;;;;;;19.87;11.10;;;;;;;13.78;88.12;99882.38;5101589;28;20498;-70
2022/11/01 01:11:33;;;;;;;16.07;11.70;;;;;;;13.68;88.24;99871.78;5084706;28;20476;-72
2022/11/01 01:14:00;;;;;;;15.20;12.07;;;;;;;13.71;87.84;99877.69;5086226;28;20475;-71
2022/11/01 01:16:26;;;;;;;18.20;11.97;;;;;;;13.74;87.98;99869.28;5090216;28;20518;-73
2022/11/01 01:18:54;;;;;;;22.10;11.77;;;;;;;13.84;87.72;99876.31;5102728;28;20447;-73
2022/11/01 01:21:23;;;;;;;18.83;11.03;;;;;;;13.79;87.54;99868.78;5100061;28;21042;-72
2022/11/01 01:23:50;;;;;;;14.00;10.20;;;;;;;13.85;87.39;99864.56;5100456;28;20508;-72
2022/11/01 01:26:17;;;;;;;14.97;11.00;;;;;;;13.82;87.17;99854.13;5097766;28;20579;-71
2022/11/01 01:28:43;;;;;;;20.70;12.70;;;;;;;13.64;87.68;99860.56;5087861;28;20467;-72
2022/11/01 01:31:11;;;;;;;17.00;11.43;;;;;;;13.54;88.16;99860.75;5091313;28;20484;-72
2022/11/01 01:33:38;;;;;;;17.37;11.70;;;;;;;13.44;88.27;99843.97;5095966;28;20475;-72
2022/11/01 01:36:07;;;;;;;15.90;11.07;;;;;;;13.20;89.68;99844.78;5091509;28;20500;-72
2022/11/01 01:38:33;;;;;;;16.80;11.77;;;;;;;13.19;90.64;99848.47;5082292;28;20483;-70
2022/11/01 01:41:54;;;;;;;19.73;12.73;;;;;;;13.36;90.41;99842.13;5086513;28;20500;-71
2022/11/01 01:43:47;;;;;;;21.37;14.70;;;;;;;13.36;89.92;99852.03;5061983;28;20500;-68
2022/11/01 01:46:14;;;;;;;20.43;12.50;;;;;;;13.37;90.04;99842.97;5060615;28;20484;-69
2022/11/01 01:48:42;;;;;;;16.43;12.80;;;;;;;13.37;89.91;99846.50;5061165;28;20465;-67
2022/11/01 01:51:12;;;;;;;17.10;13.10;;;;;;;13.40;89.81;99853.34;5061180;28;20493;-67
2022/11/01 01:53:43;;;;;;;18.30;12.37;;;;;;;13.34;90.13;99846.00;5061429;28;20484;-68
2022/11/01 01:56:12;;;;;;;19.80;11.67;;;;;;;13.46;89.81;99851.88;5061248;28;21163;-68
2022/11/01 01:58:41;;;;;;;20.53;11.00;;;;;;;13.51;89.37;99838.78;5061930;28;20972;-67
2022/11/01 02:01:08;;;;;;;15.77;11.10;;;;;;;13.48;89.33;99836.41;5059491;28;21100;-67
2022/11/01 02:03:36;;;;;;;16.53;10.90;;;;;;;13.47;89.39;99840.97;5061239;28;20488;-68
2022/11/01 02:06:07;;;;;;;16.83;11.17;;;;;;;13.42;89.37;99829.88;5060919;28;20530;-65
2022/11/01 02:08:37;;;;;;;15.03;11.33;;;;;;;13.46;89.71;99835.75;5061456;28;20501;-69
2022/11/01 02:11:04;;;;;;;16.30;11.20;;;;;;;13.50;89.65;99827.16;5060755;28;20647;-68
2022/11/01 02:13:31;;;;;;;15.07;12.10;;;;;;;13.47;89.06;99826.66;5060899;28;20485;-66
2022/11/01 02:16:16;;;;;;;16.73;11.90;;;;;;;13.45;89.50;99810.72;5071152;28;20721;-68
2022/11/01 02:18:46;;;;;;;15.80;11.37;;;;;;;13.53;88.82;99809.88;5060471;28;20481;-67
2022/11/01 02:21:51;;;;;;;15.97;10.10;;;;;;;13.53;88.53;99804.50;5060476;28;20530;-67
2022/11/01 02:24:54;;;;;;;19.60;11.20;;;;;;;13.48;89.05;99793.44;5060795;28;20520;-66
2022/11/01 02:27:24;;;;;;;16.20;11.97;;;;;;;13.48;89.00;99801.50;5054431;28;20496;-66
2022/11/01 02:30:12;;;;;;;20.43;11.20;;;;;;;13.54;88.80;99788.25;5061710;28;20771;-67
2022/11/01 02:33:09;;;;;;;15.67;10.87;;;;;;;13.57;88.85;99795.09;5060107;28;20493;-65
2022/11/01 02:35:48;;;;;;;14.80;10.93;;;;;;;13.56;88.68;99796.13;5059927;28;20493;-67
2022/11/01 02:38:21;;;;;;;14.87;10.33;;;;;;;13.64;88.28;99789.88;5041116;28;20454;-67
2022/11/01 02:40:52;;;;;;;14.60;10.50;;;;;;;13.71;87.92;99780.97;5045643;28;20473;-66
2022/11/01 02:43:22;;;;;;;14.20;9.93;;;;;;;13.72;87.93;99782.63;5078556;28;21175;-66
2022/11/01 02:45:50;;;;;;;14.97;10.33;;;;;;;13.64;87.79;99776.44;5080686;28;20519;-66
2022/11/01 02:48:19;;;;;;;14.30;9.60;;;;;;;13.68;88.13;99783.16;5080138;28;20484;-66
2022/11/01 02:50:48;;;;;;;15.27;10.83;;;;;;;13.71;88.16;99785.50;5080701;28;20488;-67
2022/11/01 02:53:15;;;;;;;15.80;10.27;;;;;;;13.61;88.58;99790.22;5080632;28;20520;-66
2022/11/01 02:55:41;;;;;;;12.60;10.10;;;;;;;13.53;89.01;99793.78;5062188;28;20492;-67
2022/11/01 02:58:14;;;;;;;16.70;11.10;;;;;;;13.41;89.86;99784.41;5080510;28;20494;-67
2022/11/01 03:00:44;;;;;;;15.60;10.50;;;;;;;13.63;89.22;99788.22;5079912;28;20485;-66
2022/11/01 03:03:14;;;;;;;14.10;9.70;;;;;;;13.65;88.56;99778.97;5080947;28;20443;-67
2022/11/01 03:06:02;;;;;;;18.20;9.90;;;;;;;13.64;88.44;99787.19;5080789;28;20536;-67
2022/11/01 03:08:32;;;;;;;16.30;10.13;;;;;;;13.72;87.86;99779.94;5080715;28;20449;-67
2022/11/01 03:11:05;;;;;;;22.23;11.47;;;;;;;13.62;88.14;99787.38;5059854;28;20492;-67
2022/11/01 03:13:48;;;;;;;15.23;10.00;;;;;;;13.68;88.12;99781.31;5060855;28;20495;-67
2022/11/01 03:16:19;;;;;;;15.00;9.20;;;;;;;13.87;87.15;99779.22;5080692;28;20496;-68
2022/11/01 03:18:55;;;;;;;12.97;8.60;;;;;;;13.88;86.90;99783.59;5080129;28;20476;-66
2022/11/01 03:21:25;;;;;;;12.70;8.30;;;;;;;14.00;86.34;99784.06;5081094;28;20518;-64
2022/11/01 03:23:56;;;;;;;9.67;6.67;;;;;;;14.07;85.96;99779.66;5080314;28;20488;-63
2022/11/01 03:26:26;;;;;;;14.70;6.93;;;;;;;14.21;84.90;99786.97;5080948;28;20562;-66
2022/11/01 03:28:56;;;;;;;13.37;7.30;;;;;;;14.27;84.64;99796.22;5079933;28;20746;-65
2022/11/01 03:31:24;;;;;;;12.93;7.60;;;;;;;14.38;83.62;99778.84;5080589;28;20503;-67
2022/11/01 03:33:53;;;;;;;12.00;6.90;;;;;;;14.43;83.18;99781.84;5080543;28;20492;-66
2022/11/01 03:36:24;;;;;;;11.93;7.70;;;;;;;14.55;83.00;99793.88;5080025;28;20515;-66
2022/11/01 03:38:54;;;;;;;11.40;7.13;;;;;;;14.65;82.28;99791.81;5080313;28;20494;-65
2022/11/01 03:41:21;;;;;;;8.10;6.83;;;;;;;14.67;81.73;99791.63;5079979;28;20523;-67
2022/11/01 03:43:48;;;;;;;11.63;7.77;;;;;;;14.71;81.77;99790.25;5081158;28;20551;-66
2022/11/01 03:46:15;;;;;;;14.43;7.87;;;;;;;14.71;81.80;99800.19;5080006;28;20503;-65
2022/11/01 03:48:42;;;;;;;11.67;7.57;;;;;;;14.65;81.91;99794.50;5079795;28;20602;-66
2022/11/01 03:51:08;;;;;;;10.83;6.90;;;;;;;14.77;81.57;99799.47;5080209;28;20499;-66
2022/11/01 03:53:37;;;;;;;11.03;6.83;;;;;;;14.73;81.90;99807.06;5080787;28;20476;-65
2022/11/01 03:56:04;;;;;;;11.40;6.53;;;;;;;14.79;81.52;99808.19;5079754;28;20472;-66
2022/11/01 03:58:41;;;;;;;10.83;6.67;;;;;;;14.94;80.69;99808.25;5080750;28;20475;-66
2022/11/01 04:01:08;;;;;;;10.40;6.40;;;;;;;14.91;80.94;99814.00;5079837;28;20577;-66
2022/11/01 04:03:34;;;;;;;12.73;6.60;;;;;;;15.00;80.45;99810.25;5082452;28;20547;-66
2022/11/01 04:06:01;;;;;;;8.97;6.20;;;;;;;15.17;79.70;99808.22;5083573;28;21196;-67
2022/11/01 04:08:28;;;;;;;9.17;5.90;;;;;;;15.27;78.90;99811.50;5083747;28;20479;-66
2022/11/01 04:10:56;;;;;;;13.97;7.40;;;;;;;15.21;79.22;99818.47;5083312;28;20499;-67
2022/11/01 04:13:22;;;;;;;13.80;6.53;;;;;;;15.22;79.03;99808.53;5084099;28;20531;-67
2022/11/01 04:21:19;;;;;;;10.17;6.00;;;;;;;15.69;76.78;99815.47;5083790;28;20835;-67
2022/11/01 04:23:46;;;;;;;12.37;6.63;;;;;;;15.73;76.84;99815.97;5083598;28;21016;-67
2022/11/01 04:26:16;;;;;;;9.67;5.83;;;;;;;15.83;76.31;99819.25;5082981;28;20544;-67
2022/11/01 04:28:43;;;;;;;11.37;6.27;;;;;;;15.80;76.50;99806.97;5083303;28;20486;-66
2022/11/01 04:31:10;;;;;;;14.83;7.80;;;;;;;15.87;75.91;99807.09;5083352;28;20498;-66
2022/11/01 04:33:37;;;;;;;14.23;6.07;;;;;;;15.97;75.31;99801.38;5083165;28;20476;-66
2022/11/01 04:36:05;;;;;;;7.37;5.70;;;;;;;15.97;75.56;99812.16;5083464;28;20476;-67
2022/11/01 04:38:31;;;;;;;11.13;6.17;;;;;;;16.00;75.29;99804.56;5083244;28;20476;-66
2022/11/01 04:40:58;;;;;;;12.23;5.23;;;;;;;16.13;74.71;99809.28;5082832;28;20496;-66
2022/11/01 04:43:26;;;;;;;8.90;5.90;;;;;;;16.19;74.33;99813.91;5083375;28;20485;-66
2022/11/01 04:45:56;;;;;;;8.23;4.97;;;;;;;16.17;74.33;99810.59;5082260;28;20508;-66
2022/11/01 04:48:23;;;;;;;10.73;5.73;;;;;;;16.08;74.56;99808.19;5082394;28;20460;-66
2022/11/01 04:50:50;;;;;;;11.00;5.20;;;;;;;16.12;74.66;99817.56;5083234;28;20492;-66
2022/11/01 04:53:17;;;;;;;7.10;5.40;;;;;;;15.98;75.14;99809.28;5082784;28;20460;-66
2022/11/01 04:55:43;;;;;;;7.80;4.90;;;;;;;15.95;75.11;99806.13;5082507;28;20492;-64
2022/11/01 04:58:10;;;;;;;10.10;5.50;;;;;;;15.96;75.54;99824.00;5083173;28;20449;-65
2022/11/01 05:00:38;;;;;;;7.70;5.13;;;;;;;15.99;75.68;99812.84;5082457;28;20470;-67
2022/11/01 05:03:06;;;;;;;12.30;5.00;;;;;;;16.03;75.12;99808.75;5082544;28;20480;-68
2022/11/01 05:05:34;;;;;;;5.80;4.40;;;;;;;16.00;75.41;99809.09;5083044;28;20501;-67
2022/11/01 05:08:01;;;;;;;7.80;5.10;;;;;;;16.08;75.10;99818.97;5082844;28;20957;-67
2022/11/01 05:10:28;;;;;;;9.20;4.43;;;;;;;16.22;75.07;99815.41;5081913;28;20456;-66
2022/11/01 05:12:55;;;;;;;7.43;4.90;;;;;;;16.18;75.20;99822.22;5082023;28;20906;-65
2022/11/01 05:15:22;;;;;;;9.37;5.40;;;;;;;16.10;75.23;99820.44;5082309;28;20440;-66
2022/11/01 05:17:50;;;;;;;8.50;5.00;;;;;;;15.99;76.30;99819.06;5082167;28;20500;-67
2022/11/01 05:20:16;;;;;;;8.07;4.53;;;;;;;16.17;75.33;99825.94;5082615;28;20429;-65
2022/11/01 05:22:43;;;;;;;7.50;4.90;;;;;;;16.24;75.37;99824.16;5082631;28;20440;-66
2022/11/01 05:25:10;;;;;;;8.27;4.00;;;;;;;16.26;75.19;99818.56;5080541;28;20516;-66
2022/11/01 05:27:36;;;;;;;11.20;4.77;;;;;;;16.25;75.30;99825.84;5083977;28;20487;-66
2022/11/01 05:30:04;;;;;;;8.67;4.30;;;;;;;16.24;75.24;99824.16;5100521;28;20476;-66
2022/11/01 05:32:31;;;;;;;7.43;3.80;;;;;;;16.33;75.21;99827.59;5074600;28;20519;-65
2022/11/01 05:34:59;;;;;;;7.40;4.20;;;;;;;16.35;74.95;99829.09;5090040;28;20460;-66
2022/11/01 05:37:26;;;;;;;10.40;5.47;;;;;;;16.31;75.25;99827.78;5093713;28;20507;-66
2022/11/01 05:39:52;;;;;;;12.00;5.03;;;;;;;16.29;75.35;99829.81;5082215;28;20452;-66
2022/11/01 05:42:19;;;;;;;11.40;5.17;;;;;;;16.30;75.40;99836.91;5081355;28;20517;-67
2022/11/01 05:44:46;;;;;;;8.63;4.77;;;;;;;16.28;75.80;99841.63;5082002;28;20477;-66
2022/11/01 05:47:12;;;;;;;9.27;4.60;;;;;;;16.31;75.65;99852.06;5081651;28;20464;-69
2022/11/01 05:49:39;;;;;;;11.10;5.33;;;;;;;16.30;75.48;99857.63;5082192;28;20493;-70
2022/11/01 05:52:07;;;;;;;6.37;4.50;;;;;;;16.18;76.12;99854.59;5081170;28;20531;-70
2022/11/01 05:54:33;;;;;;;7.30;4.93;;;;;;;16.25;75.92;99847.41;5081336;28;20482;-70
2022/11/01 05:57:00;;;;;;;6.40;4.60;;;;;;;16.29;76.02;99855.97;5081712;28;20498;-69
2022/11/01 05:59:27;;;;;;;7.77;4.57;;;;;;;16.21;76.25;99864.97;5081760;28;20469;-69
2022/11/01 06:01:53;;;;;;;6.70;4.13;;;;;;;16.17;76.46;99864.53;5089582;28;20500;-70
2022/11/01 06:04:22;;;;;;;8.80;4.30;;;;;;;16.22;76.20;99861.28;5101999;28;20452;-70
2022/11/01 06:06:48;;;;;;;8.37;4.90;;;;;;;16.19;76.62;99864.34;5084531;28;20503;-69
2022/11/01 06:09:16;;;;;;;6.83;4.40;;;;;;;16.32;76.29;99861.81;5081177;28;20495;-70
2022/11/01 06:11:43;;;;;;;7.10;4.00;;;;;;;16.24;76.27;99856.53;5080996;28;20495;-69
2022/11/01 06:14:10;;;;;;;6.60;4.10;;;;;;;16.31;76.30;99872.81;5080659;28;20485;-68
2022/11/01 06:16:37;;;;;;;9.90;4.43;;;;;;;16.32;76.32;99877.19;5075269;28;20481;-68
2022/11/01 06:19:03;;;;;;;5.27;4.30;;;;;;;16.22;76.85;99873.94;5073655;28;20771;-68
2022/11/01 06:21:30;;;;;;;9.33;4.77;;;;;;;16.32;76.28;99872.63;5078999;28;20512;-70
2022/11/01 06:23:57;;;;;;;6.80;4.10;;;;;;;16.24;76.76;99869.19;5069759;28;20901;-71
2022/11/01 06:26:24;;;;;;;6.20;3.90;;;;;;;16.23;76.79;99884.53;5093913;28;20868;-71
2022/11/01 06:28:51;;;;;;;9.73;4.50;;;;;;;16.22;76.94;99879.31;5076389;28;20555;-70
2022/11/01 06:31:18;;;;;;;7.40;4.10;;;;;;;16.21;77.03;99885.72;5070177;28;20473;-72
2022/11/01 06:33:44;;;;;;;7.20;4.23;;;;;;;16.26;76.95;99894.94;5099432;28;20548;-72
2022/11/01 06:36:11;;;;;;;8.90;4.63;;;;;;;16.18;76.81;99893.19;5099059;28;20549;-72
2022/11/01 06:38:37;;;;;;;6.27;4.40;;;;;;;16.32;76.56;99891.50;5098950;28;20534;-70
2022/11/01 06:41:04;;;;;;;8.20;4.40;;;;;;;16.27;76.99;99893.91;5098019;28;20470;-72
2022/11/01 06:43:32;;;;;;;9.10;4.57;;;;;;;16.29;77.12;99897.25;5093208;28;20511;-70
2022/11/01 06:46:00;;;;;;;8.43;4.60;;;;;;;16.36;76.61;99897.34;5082714;28;20476;-70
2022/11/01 06:48:27;;;;;;;9.57;5.23;;;;;;;16.36;76.64;99906.28;5090137;28;21010;-71
2022/11/01 06:50:54;;;;;;;8.93;4.63;;;;;;;16.40;76.64;99914.84;5077040;28;20495;-70
2022/11/01 06:53:21;;;;;;;6.77;4.17;;;;;;;16.44;76.57;99918.84;5073690;28;20480;-71
2022/11/01 06:55:48;;;;;;;7.13;4.60;;;;;;;16.40;76.47;99920.22;5092504;28;21001;-63
2022/11/01 06:58:14;;;;;;;9.63;4.43;;;;;;;16.57;76.14;99915.47;5095453;28;20479;-73
2022/11/01 07:00:42;;;;;;;9.30;4.47;;;;;;;16.49;76.46;99927.22;5089880;28;20488;-66
2022/11/01 07:03:12;;;;;;;9.50;4.70;;;;;;;16.59;76.11;99923.38;5072327;28;20587;-66
2022/11/01 07:05:39;;;;;;;7.43;4.07;;;;;;;16.54;76.02;99921.25;5078377;28;20548;-67
2022/11/01 07:08:07;;;;;;;7.43;4.30;;;;;;;16.53;76.56;99939.31;5086632;28;20481;-66
2022/11/01 07:10:35;;;;;;;8.13;4.53;;;;;;;16.72;75.84;99945.16;5092195;28;20488;-66
2022/11/01 07:13:03;;;;;;;10.07;4.10;;;;;;;16.79;75.60;99956.03;5080479;28;20579;-67
2022/11/01 07:15:30;;;;;;;5.90;4.00;;;;;;;16.66;75.96;99962.09;5079262;28;20485;-67
2022/11/01 07:17:59;;;;;;;13.53;4.40;;;;;;;16.70;75.89;99964.25;5079566;28;20446;-66
2022/11/01 07:20:27;;;;;;;8.27;5.00;;;;;;;16.80;75.66;99968.50;5085089;28;20470;-66
2022/11/01 07:22:59;;;;;;;7.30;3.63;;;;;;;16.84;75.74;99964.44;5080465;28;20472;-66
2022/11/01 07:25:26;;;;;;;8.37;4.50;;;;;;;16.85;75.85;99980.44;5077671;28;20845;-66
2022/11/01 07:27:52;;;;;;;8.20;4.13;;;;;;;16.71;76.57;99978.56;5075298;28;20468;-66
2022/11/01 07:30:19;;;;;;;8.77;4.53;;;;;;;16.71;76.57;99981.28;5072376;28;20459;-67
2022/11/01 07:32:46;;;;;;;6.50;3.60;;;;;;;16.71;76.82;99986.66;5085836;28;20479;-67
2022/11/01 07:35:14;;;;;;;6.07;4.00;;;;;;;16.69;76.44;99978.75;5085628;28;20788;-66
2022/11/01 07:37:41;;;;;;;7.90;4.20;;;;;;;16.84;76.44;99991.44;5083678;28;20446;-66
2022/11/01 07:40:08;;;;;;;7.40;4.00;;;;;;;16.88;76.36;99993.56;5090791;28;20454;-66
2022/11/01 07:42:41;;;;;;;10.50;5.13;;;;;;;16.88;76.12;99990.03;5094908;28;20783;-67
2022/11/01 07:45:09;;;;;;;5.27;4.10;;;;;;;17.01;76.10;100002.88;5082999;28;20446;-66
2022/11/01 07:47:35;;;;;;;6.60;3.47;;;;;;;16.93;76.15;99991.16;5076120;28;20537;-66
2022/11/01 07:50:02;;;;;;;5.97;4.13;;;;;;;16.92;75.96;99992.16;5083622;28;20442;-67
2022/11/01 07:52:30;;;;;;;7.70;4.17;;;;;;;17.02;75.71;99994.56;5083214;28;20474;-68
2022/11/01 07:54:57;;;;;;;6.57;3.90;;;;;;;17.21;75.01;99995.00;5082424;28;20456;-67
2022/11/01 07:57:23;;;;;;;7.93;3.80;;;;;;;17.36;73.99;100005.75;5095258;28;20495;-67
2022/11/01 07:59:50;;;;;;;5.63;3.20;;;;;;;17.32;73.51;99994.50;5088599;28;20451;-67
2022/11/01 08:02:17;;;;;;;8.80;4.17;;;;;;;17.28;73.28;99990.53;5083049;28;20824;-66
2022/11/01 08:04:43;;;;;;;7.37;3.40;;;;;;;17.52;71.98;100008.25;5083480;28;20512;-74
2022/11/01 08:07:10;;;;;;;4.80;4.03;;;;;;;17.43;71.51;99999.41;5100612;28;20501;-73
2022/11/01 08:09:38;;;;;;;8.47;3.50;;;;;;;17.48;71.81;100007.78;5102111;28;20484;-73
2022/11/01 08:12:05;;;;;;;4.50;3.00;;;;;;;17.36;71.82;100014.72;5078720;28;20525;-73
2022/11/01 08:14:32;;;;;;;5.40;3.13;;;;;;;17.31;72.11;100018.00;5083649;28;20557;-74
2022/11/01 08:17:00;;;;;;;4.77;3.17;;;;;;;17.36;71.85;100024.69;5085410;28;20503;-73
2022/11/01 08:19:27;;;;;;;4.77;3.17;;;;;;;17.54;71.36;100022.41;5103662;28;20453;-73
2022/11/01 08:21:53;;;;;;;7.23;3.43;;;;;;;17.47;71.54;100024.19;5098081;28;20473;-73
2022/11/01 08:24:20;;;;;;;6.27;3.40;;;;;;;17.54;71.58;100035.09;5101379;28;20540;-70
2022/11/01 08:26:48;;;;;;;7.53;3.07;;;;;;;17.45;71.75;100043.31;5102871;28;20518;-71
2022/11/01 08:29:14;;;;;;;6.90;2.87;;;;;;;17.45;72.01;100047.88;5103762;28;20995;-71
2022/11/01 08:31:41;;;;;;;7.20;3.60;;;;;;;17.21;72.19;100060.69;5102476;28;20487;-71
2022/11/01 08:34:08;;;;;;;4.10;3.13;;;;;;;17.19;72.42;100062.75;5102629;28;20535;-73
2022/11/01 08:36:35;;;;;;;5.47;3.43;;;;;;;17.04;70.28;100064.63;5102672;28;20500;-73
2022/11/01 08:39:01;;;;;;;8.60;3.07;;;;;;;16.80;69.30;100085.44;5085601;28;20667;-73
2022/11/01 08:41:31;;;;;;;5.70;2.50;;;;;;;16.62;69.14;100084.97;5090218;28;20509;-73
2022/11/01 08:43:59;;;;;;;9.20;2.23;;;;;;;16.64;68.53;100086.44;5093872;28;20524;-73
2022/11/01 08:46:27;;;;;;;3.57;1.83;;;;;;;16.59;67.16;100096.13;5090830;28;20506;-73
2022/11/01 08:48:55;;;;;;;5.23;1.70;;;;;;;16.49;66.91;100102.63;5090413;28;20461;-72
2022/11/01 08:51:24;;;;;;;3.57;1.73;;;;;;;16.61;65.95;100108.41;5091657;28;20475;-73
2022/11/01 08:53:51;;;;;;;5.53;2.00;;;;;;;17.35;63.69;100104.91;5093107;28;20472;-73
2022/11/01 08:56:19;;;;;;;5.07;1.90;;;;;;;18.40;59.81;100113.53;5083967;28;20889;-73
2022/11/01 08:58:48;;;;;;;6.03;1.87;;;;;;;18.63;57.22;100118.75;5096405;28;20450;-73
2022/11/01 09:01:16;;;;;;;2.63;1.50;;;;;;;18.59;56.51;100115.59;5092133;28;20488;-72
2022/11/01 09:03:43;;;;;;;2.50;1.70;;;;;;;19.11;53.59;100120.75;5091270;28;20643;-73
2022/11/01 09:06:10;;;;;;;4.50;1.50;;;;;;;18.61;54.24;100118.94;5089304;28;20541;-74
2022/11/01 09:08:37;;;;;;;4.53;1.50;;;;;;;19.23;52.04;100118.31;5093169;28;20467;-73
2022/11/01 09:11:05;;;;;;;1.67;1.23;;;;;;;20.02;49.14;100123.22;5091493;28;20505;-73
2022/11/01 09:13:31;;;;;;;2.80;1.27;;;;;;;21.90;44.13;100140.09;5086068;28;20487;-73
2022/11/01 09:15:58;;;;;;;2.17;1.00;;;;;;;20.93;43.15;100132.66;5088117;28;20494;-71
2022/11/01 09:18:26;;;;;;;4.53;1.10;;;;;;;20.73;41.55;100135.41;5088515;28;20489;-71
2022/11/01 09:20:53;;;;;;;3.63;0.90;;;;;;;22.06;39.24;100141.47;5089318;28;20471;-72
2022/11/01 09:23:20;;;;;;;3.60;0.97;;;;;;;22.19;37.32;100144.13;5088464;28;20464;-72
2022/11/01 09:25:47;;;;;;;3.33;1.07;;;;;;;22.96;36.15;100138.47;5088887;28;20495;-72
2022/11/01 09:28:17;;;;;;;3.23;1.10;;;;;;;22.11;36.32;100152.53;5093090;28;20454;-73
2022/11/01 09:30:44;;;;;;;4.00;1.20;;;;;;;21.78;36.90;100148.13;5087575;28;20501;-72
2022/11/01 09:33:11;;;;;;;3.17;0.80;;;;;;;22.75;36.56;100154.19;5078479;28;20567;-73
2022/11/01 09:35:39;;;;;;;3.67;0.93;;;;;;;23.67;33.41;100156.16;5070900;28;20861;-72
2022/11/01 09:38:05;;;;;;;2.10;0.73;;;;;;;24.22;32.94;100163.44;5080035;28;20463;-73
2022/11/01 09:40:38;;;;;;;5.70;1.10;;;;;;;23.77;33.36;100169.28;5083537;28;20481;-73
2022/11/01 09:43:06;;;;;;;3.93;1.13;;;;;;;22.36;35.77;100177.16;5091126;28;20573;-73
2022/11/01 09:45:33;;;;;;;3.03;0.97;;;;;;;23.03;33.88;100184.75;5097305;28;20483;-73
2022/11/01 09:48:01;;;;;;;5.13;1.57;;;;;;;22.74;33.98;100187.09;5081278;28;20494;-74
2022/11/01 09:50:33;;;;;;;2.53;1.03;;;;;;;22.35;33.94;100186.34;5079315;28;20462;-71
2022/11/01 09:53:03;;;;;;;10.03;1.40;;;;;;;22.49;34.00;100182.47;5070206;28;20469;-74
2022/11/01 09:55:40;;;;;;;4.60;0.90;;;;;;;21.27;35.79;100192.44;5069868;28;20466;-71
2022/11/01 09:58:13;;;;;;;9.50;1.40;;;;;;;21.37;35.14;100193.66;5085289;28;20489;-71
2022/11/01 10:00:44;;;;;;;4.70;1.10;;;;;;;22.16;34.17;100196.28;5085238;28;21061;-71
2022/11/01 10:03:27;;;;;;;3.73;1.30;;;;;;;21.94;34.60;100201.22;5098449;28;20445;-71
2022/11/01 10:05:58;;;;;;;5.40;1.33;;;;;;;21.74;34.54;100209.47;5080378;28;20501;-72
2022/11/01 10:08:38;;;;;;;5.97;1.40;;;;;;;21.92;34.31;100212.31;5092149;28;20542;-72
2022/11/01 10:11:19;;;;;;;8.37;2.00;;;;;;;21.31;35.79;100207.25;5097846;28;20547;-72
2022/11/01 10:13:51;;;;;;;6.90;1.23;;;;;;;21.38;35.83;100214.34;5084384;28;20484;-73
2022/11/01 10:16:25;;;;;;;4.60;1.30;;;;;;;22.66;33.87;100225.56;5066307;28;21038;-73
2022/11/01 10:18:56;;;;;;;3.13;1.10;;;;;;;23.10;32.79;100210.94;5089437;28;20490;-73
2022/11/01 10:21:23;;;;;;;3.20;1.10;;;;;;;22.26;34.55;100221.16;5095294;28;20481;-72
2022/11/01 10:23:52;;;;;;;5.63;1.37;;;;;;;21.57;34.76;100223.53;5091189;28;20454;-72
2022/11/01 10:26:21;;;;;;;3.90;1.33;;;;;;;21.41;35.60;100224.81;5081752;28;22106;-71
2022/11/01 10:28:54;;;;;;;6.70;1.43;;;;;;;22.53;34.61;100232.78;5097758;28;20470;-67
2022/11/01 10:31:25;;;;;;;3.80;1.20;;;;;;;22.74;33.75;100239.75;5099218;28;20491;-66
2022/11/01 10:33:57;;;;;;;6.50;1.40;;;;;;;22.37;34.12;100245.00;5098430;28;20474;-66
2022/11/01 10:36:26;;;;;;;3.90;1.47;;;;;;;22.34;34.49;100250.03;5099807;28;20499;-66
2022/11/01 10:38:58;;;;;;;6.10;1.40;;;;;;;22.28;34.63;100245.50;5094462;28;20484;-66
2022/11/01 10:41:29;;;;;;;5.37;1.63;;;;;;;21.04;36.14;100254.34;5078553;28;20507;-66
2022/11/01 10:43:58;;;;;;;4.17;1.53;;;;;;;21.92;34.70;100255.03;5082911;28;20443;-66
2022/11/01 10:46:29;;;;;;;4.30;0.97;;;;;;;23.79;31.81;100257.25;5077718;28;20494;-66
2022/11/01 10:48:58;;;;;;;3.50;1.13;;;;;;;21.16;35.53;100262.72;5099085;28;20483;-66
2022/11/01 10:51:27;;;;;;;4.43;1.43;;;;;;;21.04;36.70;100272.53;5061560;28;20541;-66
2022/11/01 10:53:58;;;;;;;5.93;1.70;;;;;;;21.50;36.10;100259.97;5092613;28;20470;-66
2022/11/01 10:56:29;;;;;;;4.00;1.63;;;;;;;21.88;35.50;100264.69;5078025;28;20476;-66
2022/11/01 10:59:00;;;;;;;4.53;1.47;;;;;;;22.09;35.22;100275.28;5080255;28;21033;-66
2022/11/01 11:01:28;;;;;;;5.93;1.87;;;;;;;22.26;34.33;100275.63;5083890;28;20485;-67
2022/11/01 11:03:58;;;;;;;6.90;1.70;;;;;;;21.87;35.51;100279.34;5090459;28;20516;-66
2022/11/01 11:06:24;;;;;;;8.53;1.83;;;;;;;21.59;35.37;100280.47;5076182;28;20483;-66
2022/11/01 11:08:52;;;;;;;6.47;1.70;;;;;;;21.49;35.82;100278.19;5079242;28;20462;-66
2022/11/01 11:11:26;;;;;;;8.20;2.30;;;;;;;20.90;36.86;100276.28;5084955;28;20614;-66
2022/11/01 11:13:55;;;;;;;11.40;2.17;;;;;;;20.82;37.22;100263.75;5094718;28;20482;-66
2022/11/01 11:16:29;;;;;;;12.73;2.57;;;;;;;21.17;36.59;100271.69;5088923;28;20505;-66
2022/11/01 11:19:01;;;;;;;6.67;1.97;;;;;;;21.19;36.33;100278.56;5085765;28;20967;-66
2022/11/01 11:21:32;;;;;;;10.23;1.97;;;;;;;20.76;36.71;100267.28;5080742;28;20472;-66
2022/11/01 11:23:59;;;;;;;5.13;1.50;;;;;;;21.75;36.33;100280.00;5082962;28;20466;-66
2022/11/01 11:26:28;;;;;;;8.97;3.03;;;;;;;21.14;36.65;100282.97;5083712;28;20598;-67
2022/11/01 11:28:56;;;;;;;9.37;1.90;;;;;;;21.14;36.63;100283.81;5077376;28;20448;-67
2022/11/01 11:31:25;;;;;;;7.57;1.67;;;;;;;20.35;37.85;100269.06;5081451;28;20483;-66
2022/11/01 11:33:54;;;;;;;5.43;1.50;;;;;;;21.09;36.80;100280.88;5081492;28;20452;-67
2022/11/01 11:36:27;;;;;;;9.57;2.87;;;;;;;21.54;36.15;100285.69;5085390;28;20568;-67